Ora Direzione Vento Velocita' Vento Media Vento Raffica Max. Temperatura Wind Chill Pioggia Pressione
15:09:18.0286 °(WNW)11.3 Kts11.3 Kts14.8 Kts16.1 °C14.7 °C0.0 mm1021.4 Hpa
14:48:19.0273 °(W)12.2 Kts12.2 Kts14.0 Kts16.1 °C14.6 °C0.0 mm1021.6 Hpa
14:28:43.0265 °(W)8.7 Kts11.3 Kts14.0 Kts16.2 °C15.2 °C0.0 mm1021.7 Hpa
14:09:18.0274 °(W)8.7 Kts9.5 Kts13.0 Kts15.6 °C14.6 °C0.0 mm1021.8 Hpa
13:48:30.0271 °(W)10.5 Kts9.5 Kts13.0 Kts15.6 °C14.3 °C0.0 mm1022.1 Hpa
13:29:03.0270 °(W)7.0 Kts9.5 Kts13.0 Kts15.1 °C14.2 °C0.0 mm1022.3 Hpa
13:08:44.0275 °(W)9.5 Kts9.5 Kts13.0 Kts15.1 °C13.8 °C0.0 mm1022.6 Hpa
12:48:12.0272 °(W)11.3 Kts11.3 Kts13.0 Kts14.8 °C13.1 °C0.0 mm1022.7 Hpa
12:28:54.0273 °(W)9.5 Kts10.5 Kts13.0 Kts15.0 °C13.7 °C0.0 mm1022.8 Hpa
12:09:07.0276 °(W)12.2 Kts10.5 Kts12.2 Kts15.3 °C13.7 °C0.0 mm1023.0 Hpa
11:48:49.0316 °(NW)2.5 Kts4.3 Kts11.3 Kts16.8 °C16.8 °C0.0 mm1023.1 Hpa
11:28:23.0355 °(N)3.5 Kts5.2 Kts11.3 Kts16.0 °C16.0 °C0.0 mm1023.2 Hpa
11:09:15.0330 °(NNW)1.7 Kts4.3 Kts11.3 Kts15.4 °C15.4 °C0.0 mm1023.2 Hpa
10:49:03.0342 °(NNW)6.0 Kts4.3 Kts11.3 Kts15.0 °C14.3 °C0.0 mm1023.1 Hpa
10:28:39.011 °(N)5.2 Kts5.2 Kts11.3 Kts13.9 °C13.1 °C0.0 mm1023.0 Hpa
10:08:21.038 °(NE)4.3 Kts6.0 Kts11.3 Kts12.8 °C12.2 °C0.0 mm1023.0 Hpa
09:49:03.038 °(NE)7.8 Kts7.8 Kts11.3 Kts11.9 °C10.1 °C0.0 mm1023.0 Hpa
09:28:45.029 °(NNE)8.7 Kts7.8 Kts11.3 Kts10.9 °C8.7 °C0.0 mm1022.9 Hpa
09:08:31.012 °(NNE)3.5 Kts6.0 Kts10.5 Kts10.3 °C9.6 °C0.0 mm1022.9 Hpa
08:48:15.042 °(NE)7.8 Kts7.8 Kts10.5 Kts9.1 °C6.7 °C0.0 mm1022.9 Hpa